createdAt,value
2023-04-02T00:00:16.362Z,98600.41
2023-04-02T00:03:22.508Z,98612.34
2023-04-02T00:06:40.539Z,98619.09
2023-04-02T00:09:44.478Z,98624.75
2023-04-02T00:13:02.408Z,98628.38
2023-04-02T00:16:10.120Z,98628.56
2023-04-02T00:19:21.046Z,98625.75
2023-04-02T00:22:28.486Z,98629.97
2023-04-02T00:25:42.953Z,98623.84
2023-04-02T00:28:46.561Z,98624.09
2023-04-02T00:31:53.966Z,98625.06
2023-04-02T00:34:58.394Z,98629.50
2023-04-02T00:38:03.438Z,98627.00
2023-04-02T00:41:09.294Z,98612.19
2023-04-02T00:44:14.837Z,98615.75
2023-04-02T00:47:24.629Z,98625.50
2023-04-02T00:50:32.279Z,98629.66
2023-04-02T00:53:36.977Z,98630.28
2023-04-02T00:56:43.905Z,98635.34
2023-04-02T00:59:55.369Z,98636.50
2023-04-02T01:03:36.557Z,98627.63
2023-04-02T01:06:41.038Z,98631.19
2023-04-02T01:10:00.137Z,98634.53
2023-04-02T01:13:15.834Z,98637.16
2023-04-02T01:16:29.874Z,98635.66
2023-04-02T01:20:08.499Z,98636.06
2023-04-02T01:23:19.684Z,98639.97
2023-04-02T01:26:36.329Z,98637.81
2023-04-02T01:29:45.613Z,98637.22
2023-04-02T01:32:51.280Z,98641.25
2023-04-02T01:36:06.011Z,98637.72
2023-04-02T01:39:21.550Z,98642.25
2023-04-02T01:42:30.031Z,98643.63
2023-04-02T01:45:36.594Z,98643.59
2023-04-02T01:48:41.450Z,98660.06
2023-04-02T01:51:48.423Z,98643.53
2023-04-02T01:54:54.422Z,98649.25
2023-04-02T01:57:59.785Z,98651.13
2023-04-02T02:01:07.414Z,98644.84
2023-04-02T02:04:14.677Z,98639.69
2023-04-02T02:07:21.270Z,98639.16
2023-04-02T02:10:31.420Z,98638.47
2023-04-02T02:13:35.055Z,98634.75
2023-04-02T02:16:43.403Z,98627.13
2023-04-02T02:19:50.523Z,98625.84
2023-04-02T02:22:54.931Z,98627.44
2023-04-02T02:25:59.848Z,98609.56
2023-04-02T02:29:08.310Z,98617.59
2023-04-02T02:32:15.269Z,98615.25
2023-04-02T02:35:25.066Z,98614.22
2023-04-02T02:38:54.672Z,98623.03
2023-04-02T02:42:10.850Z,98629.50
2023-04-02T02:45:19.320Z,98629.91
2023-04-02T02:48:29.873Z,98633.97
2023-04-02T02:51:43.707Z,98632.13
2023-04-02T02:54:54.043Z,98633.34
2023-04-02T02:58:04.666Z,98637.69
2023-04-02T03:01:14.360Z,98644.34
2023-04-02T03:04:25.759Z,98637.81
2023-04-02T03:07:33.469Z,98651.34
2023-04-02T03:10:44.881Z,98644.03
2023-04-02T03:13:51.204Z,98645.44
2023-04-02T03:17:02.309Z,98639.34
2023-04-02T03:20:16.278Z,98643.41
2023-04-02T03:23:25.976Z,98636.56
2023-04-02T03:26:36.045Z,98648.75
2023-04-02T03:29:44.782Z,98647.91
2023-04-02T03:32:54.710Z,98646.13
2023-04-02T03:36:04.642Z,98654.72
2023-04-02T03:39:16.550Z,98657.78
2023-04-02T03:42:25.316Z,98659.25
2023-04-02T03:45:35.648Z,98662.94
2023-04-02T03:48:43.452Z,98664.94
2023-04-02T03:51:54.133Z,98671.50
2023-04-02T03:55:00.710Z,98675.91
2023-04-02T03:58:12.745Z,98666.53
2023-04-02T04:01:23.360Z,98668.59
2023-04-02T04:04:30.250Z,98663.16
2023-04-02T04:07:39.990Z,98668.69
2023-04-02T04:10:45.166Z,98665.53
2023-04-02T04:13:55.334Z,98660.78
2023-04-02T04:17:05.860Z,98672.09
2023-04-02T04:20:22.122Z,98671.78
2023-04-02T04:23:32.307Z,98673.81
2023-04-02T04:26:49.779Z,98681.06
2023-04-02T04:30:03.661Z,98682.47
2023-04-02T04:33:16.662Z,98692.66
2023-04-02T04:36:28.958Z,98689.84
2023-04-02T04:39:46.948Z,98679.53
2023-04-02T04:42:56.510Z,98683.72
2023-04-02T04:46:04.860Z,98682.94
2023-04-02T04:49:15.684Z,98685.19
2023-04-02T04:52:23.436Z,98686.34
2023-04-02T04:55:35.687Z,98684.78
2023-04-02T04:58:47.327Z,98687.34
2023-04-02T05:01:57.486Z,98690.09
2023-04-02T05:05:03.741Z,98694.41
2023-04-02T05:08:15.659Z,98699.88
2023-04-02T05:11:28.095Z,98701.56
2023-04-02T05:14:37.402Z,98700.06
2023-04-02T05:17:47.996Z,98700.34
2023-04-02T05:20:57.996Z,98709.41
2023-04-02T05:24:12.077Z,98707.97
2023-04-02T05:27:28.768Z,98710.50
2023-04-02T05:30:53.921Z,98712.81
2023-04-02T05:34:00.395Z,98709.47
2023-04-02T05:37:06.962Z,98707.25
2023-04-02T05:40:20.826Z,98715.44
2023-04-02T05:43:30.068Z,98711.13
2023-04-02T05:46:39.423Z,98714.88
2023-04-02T05:49:47.501Z,98725.41
2023-04-02T05:52:57.935Z,98706.66
2023-04-02T05:56:07.625Z,98706.13
2023-04-02T05:59:20.877Z,98718.84
2023-04-02T06:02:32.126Z,98716.06
2023-04-02T06:05:41.203Z,98727.63
2023-04-02T06:08:51.705Z,98739.78
2023-04-02T06:12:02.043Z,98736.69
2023-04-02T06:15:14.270Z,98736.88
2023-04-02T06:18:22.203Z,98741.50
2023-04-02T06:21:28.693Z,98737.53
2023-04-02T06:24:33.632Z,98735.44
2023-04-02T06:27:41.585Z,98735.25
2023-04-02T06:30:50.603Z,98742.00
2023-04-02T06:33:56.492Z,98756.94
2023-04-02T06:37:06.224Z,98753.31
2023-04-02T06:40:35.220Z,98765.81
2023-04-02T06:43:49.017Z,98756.13
2023-04-02T06:47:18.819Z,98767.09
2023-04-02T06:50:31.766Z,98762.44
2023-04-02T06:53:40.549Z,98765.75
2023-04-02T06:56:51.038Z,98772.88
2023-04-02T07:00:03.726Z,98769.66
2023-04-02T07:03:15.041Z,98767.75
2023-04-02T07:06:21.260Z,98771.38
2023-04-02T07:09:27.315Z,98771.56
2023-04-02T07:12:34.471Z,98774.41
2023-04-02T07:15:38.381Z,98780.75
2023-04-02T07:18:44.642Z,98780.13
2023-04-02T07:21:48.964Z,98784.31
2023-04-02T07:24:53.723Z,98791.19
2023-04-02T07:27:58.304Z,98799.25
2023-04-02T07:31:02.285Z,98795.78
2023-04-02T07:34:08.720Z,98800.28
2023-04-02T07:37:15.820Z,98798.50
2023-04-02T07:40:23.272Z,98797.50
2023-04-02T07:43:27.000Z,98800.00
2023-04-02T07:46:30.807Z,98798.06
2023-04-02T07:49:36.062Z,98799.19
2023-04-02T07:52:42.422Z,98800.25
2023-04-02T07:55:46.160Z,98795.81
2023-04-02T07:59:14.737Z,98799.69
2023-04-02T08:02:21.707Z,98791.34
2023-04-02T08:05:28.041Z,98784.88
2023-04-02T08:08:31.790Z,98781.63
2023-04-02T08:11:35.543Z,98782.84
2023-04-02T08:14:39.227Z,98785.66
2023-04-02T08:17:43.416Z,98773.09
2023-04-02T08:20:48.704Z,98781.63
2023-04-02T08:23:52.383Z,98782.34
2023-04-02T08:26:56.084Z,98777.66
2023-04-02T08:29:59.738Z,98783.81
2023-04-02T08:33:03.782Z,98774.41
2023-04-02T08:36:09.357Z,98771.28
2023-04-02T08:39:13.630Z,98781.34
2023-04-02T08:42:30.836Z,98776.69
2023-04-02T08:45:47.920Z,98773.03
2023-04-02T08:48:57.155Z,98766.41
2023-04-02T08:52:02.918Z,98763.53
2023-04-02T08:55:24.045Z,98765.03
2023-04-02T08:58:39.712Z,98769.25
2023-04-02T09:01:52.033Z,98759.88
2023-04-02T09:04:57.543Z,98760.31
2023-04-02T09:08:05.398Z,98765.59
2023-04-02T09:11:14.173Z,98769.16
2023-04-02T09:14:20.424Z,98756.97
2023-04-02T09:17:25.917Z,98753.91
2023-04-02T09:20:30.084Z,98752.81
2023-04-02T09:23:35.414Z,98735.34
2023-04-02T09:26:39.197Z,98745.16
2023-04-02T09:29:46.065Z,98733.84
2023-04-02T09:32:51.375Z,98743.44
2023-04-02T09:35:59.377Z,98726.88
2023-04-02T09:39:08.548Z,98724.13
2023-04-02T09:42:32.123Z,98732.66
2023-04-02T09:45:36.562Z,98717.66
2023-04-02T09:48:45.070Z,98726.59
2023-04-02T09:52:09.159Z,98722.34
2023-04-02T09:55:23.226Z,98719.09
2023-04-02T09:58:27.055Z,98711.88
2023-04-02T10:01:33.403Z,98704.44
2023-04-02T10:04:44.671Z,98702.88
2023-04-02T10:07:49.987Z,98705.13
2023-04-02T10:10:58.434Z,98695.00
2023-04-02T10:14:05.652Z,98699.78
2023-04-02T10:17:14.655Z,98696.16
2023-04-02T10:20:23.443Z,98691.25
2023-04-02T10:23:31.233Z,98684.75
2023-04-02T10:26:49.926Z,98691.41
2023-04-02T10:30:08.313Z,98686.28
2023-04-02T10:33:20.375Z,98681.88
2023-04-02T10:36:36.230Z,98679.06
2023-04-02T10:39:42.676Z,98688.50
2023-04-02T10:42:58.430Z,98670.78
2023-04-02T10:46:09.199Z,98679.31
2023-04-02T10:49:24.424Z,98685.59
2023-04-02T10:52:32.277Z,98674.34
2023-04-02T10:55:43.470Z,98666.81
2023-04-02T10:58:57.513Z,98662.16
2023-04-02T11:02:05.759Z,98647.75
2023-04-02T11:05:18.646Z,98657.09
2023-04-02T11:08:27.380Z,98657.41
2023-04-02T11:11:36.897Z,98645.13
2023-04-02T11:14:42.224Z,98643.81
2023-04-02T11:17:46.814Z,98645.75
2023-04-02T11:21:02.326Z,98641.84
2023-04-02T11:24:07.335Z,98637.81
2023-04-02T11:27:22.805Z,98634.97
2023-04-02T11:30:32.065Z,98632.13
2023-04-02T11:33:46.120Z,98627.59
2023-04-02T11:37:09.604Z,98626.09
2023-04-02T11:40:45.028Z,98610.81
2023-04-02T11:43:51.598Z,98629.44
2023-04-02T11:47:16.586Z,98620.25
2023-04-02T11:50:31.992Z,98608.72
2023-04-02T11:53:37.246Z,98611.72
2023-04-02T11:56:49.276Z,98598.59
2023-04-02T12:00:11.556Z,98606.94
2023-04-02T12:03:43.086Z,98601.41
2023-04-02T12:07:00.159Z,98606.22
2023-04-02T12:10:07.208Z,98593.91
2023-04-02T12:13:20.101Z,98593.19
2023-04-02T12:16:29.510Z,98596.19
2023-04-02T12:19:35.189Z,98585.31
2023-04-02T12:22:42.582Z,98587.56
2023-04-02T12:25:52.932Z,98587.88
2023-04-02T12:28:56.882Z,98586.09
2023-04-02T12:32:01.225Z,98596.56
2023-04-02T12:35:08.531Z,98589.56
2023-04-02T12:38:22.043Z,98584.91
2023-04-02T12:41:30.524Z,98579.13
2023-04-02T12:44:34.418Z,98572.59
2023-04-02T12:47:38.215Z,98572.06
2023-04-02T12:50:43.682Z,98575.22
2023-04-02T12:53:52.031Z,98575.38
2023-04-02T12:56:57.708Z,98577.09
2023-04-02T13:00:06.454Z,98564.44
2023-04-02T13:03:21.945Z,98571.19
2023-04-02T13:06:27.928Z,98572.50
2023-04-02T13:09:36.178Z,98569.22
2023-04-02T13:12:42.027Z,98571.34
2023-04-02T13:15:46.499Z,98572.84
2023-04-02T13:18:51.768Z,98567.69
2023-04-02T13:21:59.149Z,98560.19
2023-04-02T13:25:02.746Z,98564.72
2023-04-02T13:28:06.587Z,98559.16
2023-04-02T13:31:16.567Z,98563.38
2023-04-02T13:34:20.327Z,98553.38
2023-04-02T13:37:25.577Z,98557.69
2023-04-02T13:40:29.356Z,98556.41
2023-04-02T13:43:33.996Z,98561.53
2023-04-02T13:46:37.785Z,98552.13
2023-04-02T13:49:41.615Z,98544.75
2023-04-02T13:52:47.180Z,98549.94
2023-04-02T13:55:52.369Z,98560.47
2023-04-02T13:58:56.139Z,98557.16
2023-04-02T14:02:04.310Z,98557.72
2023-04-02T14:05:24.680Z,98551.72
2023-04-02T14:08:39.865Z,98555.75
2023-04-02T14:11:52.594Z,98554.72
2023-04-02T14:15:18.443Z,98548.13
2023-04-02T14:18:39.737Z,98559.34
2023-04-02T14:21:54.686Z,98557.69
2023-04-02T14:25:08.508Z,98553.66
2023-04-02T14:28:23.889Z,98550.41
2023-04-02T14:31:35.427Z,98551.88
2023-04-02T14:34:48.537Z,98555.53
2023-04-02T14:38:03.746Z,98549.41
2023-04-02T14:41:15.008Z,98555.66
2023-04-02T14:44:23.515Z,98545.88
2023-04-02T14:47:33.143Z,98548.13
2023-04-02T14:50:40.873Z,98545.38
2023-04-02T14:53:53.181Z,98543.81
2023-04-02T14:57:02.172Z,98544.22
2023-04-02T15:00:08.575Z,98544.75
2023-04-02T15:03:17.971Z,98547.13
2023-04-02T15:06:26.143Z,98555.09
2023-04-02T15:09:34.956Z,98551.44
2023-04-02T15:12:44.562Z,98557.47
2023-04-02T15:15:54.520Z,98552.00
2023-04-02T15:19:00.096Z,98564.72
2023-04-02T15:22:16.863Z,98565.53
2023-04-02T15:25:30.394Z,98563.25
2023-04-02T15:28:43.472Z,98563.25
2023-04-02T15:31:48.196Z,98573.22
2023-04-02T15:35:20.525Z,98576.91
2023-04-02T15:38:27.543Z,98574.13
2023-04-02T15:41:38.732Z,98567.19
2023-04-02T15:44:54.611Z,98573.72
2023-04-02T15:48:22.016Z,98573.06
2023-04-02T15:51:48.383Z,98586.06
2023-04-02T15:55:03.736Z,98588.53
2023-04-02T15:58:41.316Z,98591.28
2023-04-02T16:01:55.482Z,98587.00
2023-04-02T16:05:05.401Z,98590.88
2023-04-02T16:08:28.437Z,98595.53
2023-04-02T16:11:33.835Z,98596.75
2023-04-02T16:14:39.248Z,98598.47
2023-04-02T16:17:51.021Z,98594.53
2023-04-02T16:20:57.414Z,98592.59
2023-04-02T16:24:01.945Z,98599.97
2023-04-02T16:27:18.081Z,98594.34
2023-04-02T16:30:41.647Z,98597.59
2023-04-02T16:33:57.055Z,98600.13
2023-04-02T16:37:07.045Z,98596.31
2023-04-02T16:40:26.417Z,98600.13
2023-04-02T16:43:40.034Z,98591.91
2023-04-02T16:47:00.156Z,98602.53
2023-04-02T16:50:18.170Z,98604.59
2023-04-02T16:53:32.692Z,98596.75
2023-04-02T16:56:47.973Z,98598.81
2023-04-02T17:00:00.166Z,98601.69
2023-04-02T17:03:17.695Z,98605.59
2023-04-02T17:06:33.578Z,98605.44
2023-04-02T17:09:43.867Z,98618.47
2023-04-02T17:12:49.518Z,98620.69
2023-04-02T17:16:04.084Z,98615.41
2023-04-02T17:19:12.585Z,98624.13
2023-04-02T17:22:21.670Z,98621.66
2023-04-02T17:25:29.332Z,98632.56
2023-04-02T17:28:37.140Z,98636.22
2023-04-02T17:31:42.277Z,98655.66
2023-04-02T17:34:46.106Z,98660.28
2023-04-02T17:37:59.227Z,98660.44
2023-04-02T17:41:11.435Z,98659.25
2023-04-02T17:44:42.368Z,98666.09
2023-04-02T17:47:55.014Z,98678.75
2023-04-02T17:51:12.910Z,98677.94
2023-04-02T17:54:31.079Z,98684.91
2023-04-02T17:57:49.345Z,98688.81
2023-04-02T18:01:06.644Z,98700.88
2023-04-02T18:04:20.727Z,98690.22
2023-04-02T18:07:37.197Z,98702.19
2023-04-02T18:10:51.877Z,98704.81
2023-04-02T18:14:01.077Z,98703.19
2023-04-02T18:17:14.397Z,98699.38
2023-04-02T18:20:27.782Z,98695.88
2023-04-02T18:23:45.340Z,98701.53
2023-04-02T18:26:58.276Z,98699.72
2023-04-02T18:30:12.998Z,98704.94
2023-04-02T18:33:35.406Z,98709.41
2023-04-02T18:36:52.606Z,98720.06
2023-04-02T18:40:20.312Z,98728.56
2023-04-02T18:43:37.642Z,98736.09
2023-04-02T18:46:51.230Z,98746.31
2023-04-02T18:50:12.864Z,98753.44
2023-04-02T18:53:20.455Z,98747.75
2023-04-02T18:56:25.700Z,98746.97
2023-04-02T18:59:43.070Z,98745.00
2023-04-02T19:02:51.948Z,98748.63
2023-04-02T19:06:03.239Z,98751.25
2023-04-02T19:09:15.372Z,98738.94
2023-04-02T19:12:20.916Z,98764.31
2023-04-02T19:15:37.424Z,98771.34
2023-04-02T19:18:50.322Z,98776.59
2023-04-02T19:22:16.945Z,98783.63
2023-04-02T19:25:33.027Z,98790.66
2023-04-02T19:28:45.823Z,98791.75
2023-04-02T19:31:59.881Z,98791.69
2023-04-02T19:35:12.924Z,98800.84
2023-04-02T19:38:28.722Z,98801.28
2023-04-02T19:41:40.813Z,98799.66
2023-04-02T19:44:48.292Z,98806.34
2023-04-02T19:47:53.576Z,98802.50
2023-04-02T19:50:57.392Z,98812.22
2023-04-02T19:54:01.259Z,98812.44
2023-04-02T19:57:05.485Z,98810.41
2023-04-02T20:00:13.151Z,98810.59
2023-04-02T20:03:18.254Z,98820.16
2023-04-02T20:06:22.775Z,98815.47
2023-04-02T20:09:26.552Z,98809.22
2023-04-02T20:12:30.304Z,98807.22
2023-04-02T20:15:34.203Z,98814.69
2023-04-02T20:18:39.731Z,98820.13
2023-04-02T20:21:43.597Z,98807.78
2023-04-02T20:24:47.434Z,98813.66
2023-04-02T20:27:51.321Z,98809.41
2023-04-02T20:30:57.090Z,98815.31
2023-04-02T20:34:04.154Z,98810.19
2023-04-02T20:37:08.141Z,98815.88
2023-04-02T20:40:12.272Z,98812.47
2023-04-02T20:43:15.959Z,98808.59
2023-04-02T20:46:20.249Z,98814.47
2023-04-02T20:49:25.743Z,98821.78
2023-04-02T20:52:30.560Z,98826.88
2023-04-02T20:55:34.279Z,98833.16
2023-04-02T20:58:39.391Z,98836.78
2023-04-02T21:01:43.170Z,98845.72
2023-04-02T21:04:48.521Z,98841.47
2023-04-02T21:07:53.706Z,98853.03
2023-04-02T21:11:04.191Z,98859.94
2023-04-02T21:14:08.124Z,98848.34
2023-04-02T21:17:12.318Z,98864.38
2023-04-02T21:20:17.638Z,98866.38
2023-04-02T21:23:21.428Z,98868.81
2023-04-02T21:26:25.225Z,98872.47
2023-04-02T21:29:29.025Z,98870.41
2023-04-02T21:32:33.247Z,98867.44
2023-04-02T21:35:38.607Z,98868.84
2023-04-02T21:38:43.534Z,98871.06
2023-04-02T21:41:50.351Z,98876.91
2023-04-02T21:44:54.151Z,98881.16
2023-04-02T21:47:57.919Z,98879.34
2023-04-02T21:51:11.871Z,98888.66
2023-04-02T21:54:15.822Z,98889.25
2023-04-02T21:57:19.595Z,98887.84
2023-04-02T22:00:23.514Z,98901.63
2023-04-02T22:03:31.574Z,98903.03
2023-04-02T22:06:40.822Z,98905.00
2023-04-02T22:09:44.484Z,98912.31
2023-04-02T22:12:48.375Z,98913.31
2023-04-02T22:15:52.108Z,98913.69
2023-04-02T22:18:57.615Z,98908.81
2023-04-02T22:22:02.717Z,98905.34
2023-04-02T22:25:07.557Z,98896.69
2023-04-02T22:28:11.192Z,98895.03
2023-04-02T22:31:17.739Z,98894.41
2023-04-02T22:34:21.511Z,98901.81
2023-04-02T22:37:26.731Z,98905.56
2023-04-02T22:40:31.124Z,98912.06
2023-04-02T22:43:35.162Z,98911.78
2023-04-02T22:46:38.903Z,98909.75
2023-04-02T22:49:42.640Z,98913.38
2023-04-02T22:52:47.850Z,98909.69
2023-04-02T22:55:52.518Z,98900.84
2023-04-02T22:58:56.266Z,98902.84
2023-04-02T23:02:00.064Z,98896.06
2023-04-02T23:05:04.286Z,98888.47
2023-04-02T23:08:09.828Z,98882.41
2023-04-02T23:11:15.645Z,98884.38
2023-04-02T23:14:19.373Z,98885.97
2023-04-02T23:17:23.039Z,98881.41
2023-04-02T23:20:26.784Z,98865.19
2023-04-02T23:23:32.893Z,98865.59
2023-04-02T23:26:36.696Z,98875.50
2023-04-02T23:29:40.563Z,98872.00
2023-04-02T23:32:44.346Z,98872.25
2023-04-02T23:35:48.038Z,98876.03
2023-04-02T23:38:55.791Z,98868.25
2023-04-02T23:42:00.954Z,98879.25
2023-04-02T23:45:04.987Z,98886.59
2023-04-02T23:48:08.696Z,98878.97
2023-04-02T23:51:12.454Z,98874.44
2023-04-02T23:54:17.834Z,98874.13
2023-04-02T23:57:21.598Z,98875.81
